createdAt,value
2022-09-17T00:02:19.365Z,11.10
2022-09-17T00:04:50.017Z,11.10
2022-09-17T00:07:18.879Z,11.10
2022-09-17T00:10:33.463Z,11.10
2022-09-17T00:14:10.867Z,11.10
2022-09-17T00:20:53.757Z,11.10
2022-09-17T00:23:23.802Z,11.10
2022-09-17T00:25:52.703Z,11.10
2022-09-17T00:28:21.673Z,11.00
2022-09-17T00:30:50.699Z,11.00
2022-09-17T00:34:16.755Z,11.10
2022-09-17T00:36:47.196Z,11.10
2022-09-17T00:39:16.491Z,11.10
2022-09-17T00:41:45.606Z,11.00
2022-09-17T00:44:57.201Z,11.00
2022-09-17T00:47:31.821Z,11.00
2022-09-17T00:50:03.368Z,11.00
2022-09-17T00:52:42.200Z,11.10
2022-09-17T00:55:19.210Z,11.00
2022-09-17T00:57:49.359Z,11.10
2022-09-17T01:00:19.332Z,11.00
2022-09-17T01:03:52.568Z,11.00
2022-09-17T01:06:44.248Z,11.00
2022-09-17T01:09:27.096Z,11.00
2022-09-17T01:12:21.965Z,11.00
2022-09-17T01:15:04.808Z,11.00
2022-09-17T01:17:44.694Z,10.90
2022-09-17T01:21:02.791Z,10.90
2022-09-17T01:23:55.647Z,10.90
2022-09-17T01:26:52.273Z,10.90
2022-09-17T01:29:37.126Z,10.90
2022-09-17T01:40:49.866Z,10.90
2022-09-17T01:44:22.978Z,10.90
2022-09-17T01:46:56.231Z,10.90
2022-09-17T01:50:49.984Z,10.90
2022-09-17T01:53:22.534Z,10.90
2022-09-17T01:55:55.714Z,10.90
2022-09-17T01:58:29.149Z,11.00
2022-09-17T02:01:04.060Z,11.00
2022-09-17T02:03:39.127Z,11.00
2022-09-17T02:06:11.923Z,11.00
2022-09-17T02:13:37.964Z,10.90
2022-09-17T02:16:13.739Z,10.90
2022-09-17T02:18:48.107Z,10.90
2022-09-17T02:25:35.083Z,10.90
2022-09-17T02:28:10.047Z,10.90
2022-09-17T02:30:39.332Z,10.80
2022-09-17T02:37:20.847Z,10.80
2022-09-17T02:39:50.428Z,10.80
2022-09-17T02:46:55.719Z,10.80
2022-09-17T02:49:58.096Z,10.70
2022-09-17T02:52:56.768Z,10.70
2022-09-17T02:55:33.820Z,10.80
2022-09-17T02:58:12.815Z,10.80
2022-09-17T03:00:43.347Z,10.80
2022-09-17T03:03:22.758Z,10.80
2022-09-17T03:09:52.785Z,10.80
2022-09-17T03:16:36.222Z,10.80
2022-09-17T03:19:05.051Z,10.80
2022-09-17T03:21:34.114Z,10.80
2022-09-17T03:24:11.095Z,10.80
2022-09-17T03:26:41.358Z,10.80
2022-09-17T03:29:10.308Z,10.80
2022-09-17T03:32:43.041Z,10.80
2022-09-17T03:39:23.182Z,10.80
2022-09-17T03:46:25.960Z,10.80
2022-09-17T03:48:54.760Z,10.80
2022-09-17T03:55:55.609Z,10.80
2022-09-17T03:58:24.547Z,10.80
2022-09-17T04:00:54.924Z,10.80
2022-09-17T04:07:48.095Z,10.80
2022-09-17T04:10:40.741Z,10.90
2022-09-17T04:13:41.955Z,10.80
2022-09-17T04:16:11.541Z,10.80
2022-09-17T04:18:40.390Z,10.80
2022-09-17T04:28:57.817Z,10.80
2022-09-17T04:32:55.343Z,10.80
2022-09-17T04:35:25.388Z,10.80
2022-09-17T04:37:55.772Z,10.80
2022-09-17T04:40:26.042Z,10.80
2022-09-17T04:43:32.445Z,10.80
2022-09-17T04:46:02.807Z,10.90
2022-09-17T04:48:31.587Z,10.90
2022-09-17T04:51:00.310Z,10.90
2022-09-17T04:53:40.976Z,10.90
2022-09-17T04:56:09.709Z,10.90
2022-09-17T04:58:38.397Z,11.00
2022-09-17T05:09:10.568Z,11.00
2022-09-17T05:25:48.228Z,11.10
2022-09-17T05:33:08.432Z,11.20
2022-09-17T05:36:34.131Z,11.20
2022-09-17T05:39:03.053Z,11.30
2022-09-17T05:41:37.755Z,11.30
2022-09-17T05:44:06.862Z,11.30
2022-09-17T05:46:35.967Z,11.40
2022-09-17T05:49:05.311Z,11.40
2022-09-17T05:52:16.483Z,11.60
2022-09-17T06:05:28.551Z,11.90
2022-09-17T06:12:31.409Z,11.90
2022-09-17T06:15:00.317Z,11.80
2022-09-17T06:17:29.302Z,11.80
2022-09-17T06:19:59.061Z,11.90
2022-09-17T06:22:32.882Z,11.90
2022-09-17T06:25:04.094Z,12.00
2022-09-17T06:27:34.137Z,12.00
2022-09-17T06:30:48.528Z,12.10
2022-09-17T06:33:18.001Z,12.10
2022-09-17T06:35:46.651Z,12.00
2022-09-17T06:38:17.015Z,12.10
2022-09-17T06:41:14.762Z,12.10
2022-09-17T06:43:46.071Z,12.10
2022-09-17T06:46:15.343Z,12.20
2022-09-17T06:48:44.817Z,12.20
2022-09-17T06:51:16.065Z,12.30
2022-09-17T06:53:47.754Z,12.30
2022-09-17T06:56:17.626Z,12.30
2022-09-17T06:58:47.167Z,12.40
2022-09-17T07:05:32.989Z,12.50
2022-09-17T07:08:04.251Z,12.50
2022-09-17T07:10:34.446Z,12.60
2022-09-17T07:14:27.835Z,12.50
2022-09-17T07:16:56.596Z,12.60
2022-09-17T07:19:25.537Z,12.50
2022-09-17T07:21:54.645Z,12.60
2022-09-17T07:24:23.692Z,12.50
2022-09-17T07:26:54.202Z,12.60
2022-09-17T07:29:26.395Z,12.60
2022-09-17T07:31:55.344Z,12.70
2022-09-17T07:34:24.354Z,12.90
2022-09-17T07:36:53.042Z,12.90
2022-09-17T07:39:22.131Z,12.90
2022-09-17T07:41:51.057Z,12.90
2022-09-17T07:44:22.341Z,12.90
2022-09-17T07:46:51.393Z,12.90
2022-09-17T07:49:20.195Z,12.90
2022-09-17T07:51:49.269Z,13.00
2022-09-17T07:54:18.039Z,13.00
2022-09-17T07:56:46.934Z,13.00
2022-09-17T07:59:15.643Z,12.90
2022-09-17T08:01:46.904Z,13.00
2022-09-17T08:04:17.366Z,13.10
2022-09-17T08:06:48.559Z,13.20
2022-09-17T08:09:18.817Z,13.30
2022-09-17T08:11:56.358Z,13.40
2022-09-17T08:14:31.402Z,13.60
2022-09-17T08:17:01.661Z,13.60
2022-09-17T08:22:06.830Z,14.10
2022-09-17T08:24:37.977Z,14.10
2022-09-17T08:27:06.827Z,14.10
2022-09-17T08:29:35.961Z,14.20
2022-09-17T10:03:58.345Z,15.00
2022-09-17T10:06:30.860Z,15.10
2022-09-17T10:09:16.633Z,15.20
2022-09-17T10:12:01.755Z,15.20
2022-09-17T10:14:32.009Z,15.10
2022-09-17T10:17:21.065Z,15.00
2022-09-17T10:20:16.496Z,15.00
2022-09-17T10:22:49.319Z,15.00
2022-09-17T10:25:30.488Z,15.10
2022-09-17T10:28:01.292Z,15.30
2022-09-17T10:38:32.559Z,16.30
2022-09-17T10:41:17.747Z,16.40
2022-09-17T10:43:46.986Z,16.50
2022-09-17T10:46:26.791Z,16.50
2022-09-17T10:49:09.797Z,16.60
2022-09-17T10:51:39.629Z,16.70
2022-09-17T10:54:42.504Z,16.70
2022-09-17T10:57:26.586Z,16.40
2022-09-17T11:00:06.569Z,16.00
2022-09-17T11:03:29.747Z,15.80
2022-09-17T11:06:26.915Z,15.80
2022-09-17T11:09:06.602Z,15.50
2022-09-17T11:11:48.230Z,15.50
2022-09-17T11:18:44.859Z,15.40
2022-09-17T11:21:29.956Z,15.70
2022-09-17T11:24:35.892Z,15.90
2022-09-17T11:27:14.808Z,16.00
2022-09-17T11:30:02.179Z,15.90
2022-09-17T11:33:06.593Z,15.70
2022-09-17T11:35:40.779Z,15.50
2022-09-17T11:38:16.281Z,15.50
2022-09-17T11:40:48.817Z,15.60
2022-09-17T11:43:27.828Z,15.80
2022-09-17T11:46:06.306Z,16.00
2022-09-17T11:48:39.880Z,16.00
2022-09-17T11:51:24.788Z,16.00
2022-09-17T11:53:59.483Z,15.80
2022-09-17T11:56:34.948Z,15.70
2022-09-17T11:59:12.358Z,15.60
2022-09-17T12:01:47.462Z,15.40
2022-09-17T12:04:36.124Z,15.40
2022-09-17T12:07:16.475Z,15.30
2022-09-17T12:14:33.870Z,15.20
2022-09-17T12:17:04.587Z,15.30
2022-09-17T12:19:38.895Z,15.30
2022-09-17T12:22:13.317Z,15.50
2022-09-17T12:24:42.650Z,15.60
2022-09-17T12:27:22.138Z,15.70
2022-09-17T12:30:10.689Z,15.60
2022-09-17T12:32:56.871Z,15.40
2022-09-17T12:36:03.407Z,15.30
2022-09-17T12:38:57.373Z,15.10
2022-09-17T12:41:36.407Z,14.70
2022-09-17T12:54:51.193Z,13.70
2022-09-17T12:57:33.291Z,13.30
2022-09-17T13:00:08.363Z,13.00
2022-09-17T13:07:32.412Z,12.70
2022-09-17T13:10:28.887Z,12.60
2022-09-17T13:13:04.730Z,12.70
2022-09-17T13:20:48.246Z,12.60
2022-09-17T13:23:46.967Z,12.60
2022-09-17T13:26:19.807Z,12.60
2022-09-17T13:28:51.247Z,12.60
2022-09-17T13:31:24.365Z,12.60
2022-09-17T13:33:58.354Z,12.60
2022-09-17T13:36:50.751Z,12.60
2022-09-17T13:39:40.840Z,12.60
2022-09-17T13:43:06.407Z,12.60
2022-09-17T13:46:14.411Z,12.70
2022-09-17T13:49:14.776Z,12.80
2022-09-17T13:52:12.177Z,12.80
2022-09-17T13:54:49.895Z,12.90
2022-09-17T13:57:18.868Z,12.90
2022-09-17T13:59:56.150Z,12.90
2022-09-17T14:02:53.310Z,13.00
2022-09-17T14:05:46.068Z,13.00
2022-09-17T14:08:31.300Z,13.00
2022-09-17T14:11:02.798Z,13.10
2022-09-17T14:13:52.010Z,13.10
2022-09-17T14:16:48.581Z,13.10
2022-09-17T14:19:37.101Z,13.10
2022-09-17T14:22:17.013Z,13.00
2022-09-17T14:24:52.594Z,13.00
2022-09-17T14:27:42.082Z,13.00
2022-09-17T14:30:21.337Z,13.00
2022-09-17T14:33:06.836Z,12.90
2022-09-17T14:35:39.617Z,12.80
2022-09-17T14:38:14.475Z,12.80
2022-09-17T14:40:46.619Z,12.70
2022-09-17T14:43:46.269Z,12.70
2022-09-17T14:46:21.510Z,12.70
2022-09-17T14:48:50.700Z,12.70
2022-09-17T14:51:42.215Z,12.60
2022-09-17T14:54:35.155Z,12.70
2022-09-17T14:57:20.266Z,12.60
2022-09-17T14:59:51.571Z,12.60
2022-09-17T15:02:55.912Z,12.60
2022-09-17T15:05:28.784Z,12.60
2022-09-17T15:08:22.057Z,12.60
2022-09-17T15:10:53.574Z,12.60
2022-09-17T15:13:26.946Z,12.50
2022-09-17T15:16:00.982Z,12.40
2022-09-17T15:18:39.553Z,12.40
2022-09-17T15:21:23.549Z,12.30
2022-09-17T15:24:04.009Z,12.30
2022-09-17T15:26:39.019Z,12.30
2022-09-17T15:29:08.435Z,12.10
2022-09-17T15:31:39.705Z,12.10
2022-09-17T15:34:12.445Z,12.10
2022-09-17T15:36:41.356Z,12.10
2022-09-17T15:39:32.722Z,12.00
2022-09-17T15:42:22.821Z,12.10
2022-09-17T15:44:52.387Z,12.10
2022-09-17T15:47:50.244Z,12.10
2022-09-17T15:50:21.570Z,12.10
2022-09-17T15:52:51.477Z,12.10
2022-09-17T15:55:37.286Z,12.10
2022-09-17T15:58:25.806Z,12.10
2022-09-17T16:01:40.545Z,12.10
2022-09-17T16:04:23.221Z,12.10
2022-09-17T16:07:01.915Z,12.10
2022-09-17T16:09:50.860Z,12.10
2022-09-17T16:12:22.790Z,12.10
2022-09-17T16:14:53.725Z,12.10
2022-09-17T16:17:26.137Z,12.10
2022-09-17T16:20:06.085Z,12.10
2022-09-17T16:22:35.608Z,12.10
2022-09-17T16:25:06.050Z,12.10
2022-09-17T16:27:49.823Z,12.10
2022-09-17T16:30:22.314Z,12.10
2022-09-17T16:32:54.105Z,12.10
2022-09-17T16:35:31.324Z,12.10
2022-09-17T16:38:01.173Z,12.10
2022-09-17T16:40:30.827Z,12.10
2022-09-17T16:43:05.885Z,12.10
2022-09-17T16:45:34.989Z,12.10
2022-09-17T16:48:04.947Z,12.10
2022-09-17T16:50:34.680Z,12.10
2022-09-17T16:58:43.611Z,12.10
2022-09-17T17:01:18.284Z,12.10
2022-09-17T17:09:01.239Z,12.00
2022-09-17T17:12:54.623Z,12.00
2022-09-17T17:15:24.005Z,12.00
2022-09-17T17:17:55.820Z,12.00
2022-09-17T17:20:26.561Z,12.00
2022-09-17T17:23:53.740Z,11.90
2022-09-17T17:26:23.631Z,11.90
2022-09-17T17:28:56.466Z,11.90
2022-09-17T17:32:11.379Z,11.90
2022-09-17T17:34:44.906Z,11.90
2022-09-17T17:37:15.805Z,11.90
2022-09-17T17:39:45.513Z,11.90
2022-09-17T17:46:48.456Z,11.90
2022-09-17T17:49:19.365Z,11.90
2022-09-17T17:52:25.019Z,11.90
2022-09-17T17:54:54.255Z,11.90
2022-09-17T17:57:25.779Z,11.80
2022-09-17T17:59:55.137Z,11.80
2022-09-17T18:06:30.352Z,11.80
2022-09-17T18:09:05.060Z,11.80
2022-09-17T18:11:39.430Z,11.80
2022-09-17T18:14:12.296Z,11.80
2022-09-17T18:16:43.047Z,11.80
2022-09-17T18:19:15.466Z,11.70
2022-09-17T18:21:47.813Z,11.70
2022-09-17T18:24:21.004Z,11.70
2022-09-17T18:26:51.224Z,11.80
2022-09-17T18:42:32.328Z,11.80
2022-09-17T18:46:07.484Z,11.70
2022-09-17T18:48:37.389Z,11.70
2022-09-17T18:52:04.740Z,11.70
2022-09-17T18:54:34.421Z,11.70
2022-09-17T18:57:28.858Z,11.70
2022-09-17T19:00:00.490Z,11.60
2022-09-17T19:07:08.903Z,11.60
2022-09-17T19:09:39.383Z,11.60
2022-09-17T19:31:11.148Z,11.60
2022-09-17T19:33:40.858Z,11.60
2022-09-17T19:36:16.548Z,11.60
2022-09-17T19:38:48.011Z,11.60
2022-09-17T19:41:19.276Z,11.60
2022-09-17T19:43:59.729Z,11.60
2022-09-17T19:46:32.655Z,11.60
2022-09-17T19:49:04.947Z,11.50
2022-09-17T19:51:35.389Z,11.50
2022-09-17T19:54:07.172Z,11.50
2022-09-17T19:56:38.272Z,11.50
2022-09-17T19:59:07.851Z,11.50
2022-09-17T20:01:38.129Z,11.50
2022-09-17T20:04:07.921Z,11.50
2022-09-17T20:06:38.460Z,11.50
2022-09-17T20:09:08.845Z,11.50
2022-09-17T20:11:42.104Z,11.50
2022-09-17T20:14:13.430Z,11.50
2022-09-17T20:16:45.460Z,11.40
2022-09-17T20:19:22.784Z,11.40
2022-09-17T20:21:54.495Z,11.50
2022-09-17T20:24:24.175Z,11.50
2022-09-17T20:26:53.516Z,11.40
2022-09-17T20:29:23.468Z,11.40
2022-09-17T20:32:00.348Z,11.50
2022-09-17T20:34:30.235Z,11.50
2022-09-17T20:37:12.684Z,11.50
2022-09-17T20:39:42.863Z,11.50
2022-09-17T20:42:11.883Z,11.50
2022-09-17T20:44:44.238Z,11.50
2022-09-17T20:47:18.924Z,11.50
2022-09-17T20:49:48.324Z,11.50
2022-09-17T20:52:21.158Z,11.50
2022-09-17T20:54:50.570Z,11.50
2022-09-17T20:57:19.715Z,11.40
2022-09-17T20:59:53.789Z,11.50
2022-09-17T21:07:50.861Z,11.50
2022-09-17T21:10:21.353Z,11.50
2022-09-17T21:14:14.727Z,11.50
2022-09-17T21:16:45.003Z,11.50
2022-09-17T21:19:17.005Z,11.50
2022-09-17T21:21:48.190Z,11.50
2022-09-17T21:24:47.524Z,11.50
2022-09-17T21:27:26.934Z,11.50
2022-09-17T21:29:59.717Z,11.50
2022-09-17T21:32:39.334Z,11.50
2022-09-17T21:35:09.016Z,11.50
2022-09-17T21:38:37.662Z,11.50
2022-09-17T21:45:20.918Z,11.50
2022-09-17T21:47:52.710Z,11.50
2022-09-17T21:50:22.083Z,11.50
2022-09-17T21:57:24.041Z,11.50
2022-09-17T22:00:54.751Z,11.50
2022-09-17T22:04:20.623Z,11.40
2022-09-17T22:07:23.842Z,11.40
2022-09-17T22:09:52.804Z,11.40
2022-09-17T22:16:20.884Z,11.40
2022-09-17T22:18:51.559Z,11.30
2022-09-17T22:21:22.634Z,11.30
2022-09-17T22:24:26.406Z,11.30
2022-09-17T22:26:58.075Z,11.20
2022-09-17T22:46:15.428Z,11.20
2022-09-17T23:01:45.931Z,10.80
2022-09-17T23:04:14.845Z,10.70
2022-09-17T23:06:43.627Z,10.70
2022-09-17T23:09:14.158Z,10.70
2022-09-17T23:12:20.497Z,10.70
2022-09-17T23:19:14.253Z,10.60
2022-09-17T23:23:06.758Z,10.70
2022-09-17T23:26:33.869Z,10.60
2022-09-17T23:29:05.386Z,10.60
2022-09-17T23:31:36.413Z,10.60
2022-09-17T23:34:07.007Z,10.60
2022-09-17T23:36:39.738Z,10.60
2022-09-17T23:39:10.229Z,10.60
2022-09-17T23:42:13.326Z,10.70
2022-09-17T23:44:42.041Z,10.60
2022-09-17T23:47:10.924Z,10.70
2022-09-17T23:49:39.741Z,10.70
2022-09-17T23:52:10.001Z,10.70
2022-09-17T23:55:40.731Z,10.70
2022-09-17T23:58:09.362Z,10.70
